Time;durP1;ratioP1;P1;durP2;ratioP2;P2;SDS_P1;SDS_P2;PMS_P1;PMS_P2;Temp;Humidity;BMP_temperature;BMP_pressure;BME280_temperature;BME280_humidity;BME280_pressure;Samples;Min_cycle;Max_cycle;Signal;HPM_P1;HPM_P2
2022/08/17 00:00:24;;;;;;;8.63;3.50;;;;;;;15.78;55.83;100073.84;5031935;28;20110;-73
2022/08/17 00:03:17;;;;;;;5.70;3.60;;;;;;;15.79;55.84;100084.47;5015309;28;20045;-75
2022/08/17 00:05:44;;;;;;;11.13;4.20;;;;;;;15.73;55.67;100085.06;5030450;28;20049;-74
2022/08/17 00:08:13;;;;;;;6.93;3.70;;;;;;;15.72;55.90;100083.34;5031543;28;20428;-74
2022/08/17 00:10:41;;;;;;;7.28;3.55;;;;;;;15.67;56.06;100079.34;4998898;28;20037;-75
2022/08/17 00:13:13;;;;;;;8.32;3.42;;;;;;;15.65;55.85;100079.50;5032481;28;20381;-74
2022/08/17 00:15:39;;;;;;;6.68;3.65;;;;;;;15.57;56.08;100073.03;4999080;28;20041;-74
2022/08/17 00:18:05;;;;;;;7.13;3.80;;;;;;;15.57;56.24;100075.72;5031495;28;20507;-74
2022/08/17 00:20:32;;;;;;;5.78;3.97;;;;;;;15.52;56.62;100073.44;5031469;28;20049;-74
2022/08/17 00:23:06;;;;;;;6.35;4.13;;;;;;;15.45;57.06;100075.81;5032468;28;20045;-75
2022/08/17 00:25:33;;;;;;;10.07;4.63;;;;;;;15.41;56.79;100078.94;4998558;28;20041;-74
2022/08/17 00:27:59;;;;;;;5.93;4.57;;;;;;;15.29;57.29;100081.72;5014712;28;20053;-73
2022/08/17 00:30:25;;;;;;;6.10;4.00;;;;;;;15.30;57.30;100082.56;5014892;28;20037;-74
2022/08/17 00:32:51;;;;;;;10.85;5.30;;;;;;;15.22;57.36;100077.00;5031422;28;20044;-73
2022/08/17 00:35:22;;;;;;;10.18;5.40;;;;;;;15.25;57.45;100082.97;5032823;28;20404;-75
2022/08/17 00:37:51;;;;;;;8.75;5.88;;;;;;;15.10;58.25;100076.25;5015152;28;20050;-74
2022/08/17 00:40:18;;;;;;;7.88;5.43;;;;;;;15.05;58.26;100078.50;5014816;28;20048;-73
2022/08/17 00:42:46;;;;;;;9.52;5.32;;;;;;;15.10;58.31;100092.41;4998470;28;20045;-73
2022/08/17 00:45:15;;;;;;;7.85;5.30;;;;;;;14.98;58.24;100063.88;5031112;28;20497;-74
2022/08/17 00:47:42;;;;;;;9.55;5.20;;;;;;;15.10;58.13;100087.03;4998384;28;20128;-73
2022/08/17 00:50:13;;;;;;;7.22;5.20;;;;;;;15.13;58.52;100078.69;5032288;28;20048;-73
2022/08/17 00:52:51;;;;;;;10.98;5.22;;;;;;;15.06;58.62;100081.06;5031657;28;20099;-73
2022/08/17 00:55:18;;;;;;;5.88;4.20;;;;;;;14.90;58.99;100075.31;5031822;28;20114;-73
2022/08/17 00:57:49;;;;;;;5.60;4.43;;;;;;;14.99;58.99;100090.63;5018177;28;20045;-74
2022/08/17 01:00:25;;;;;;;8.32;4.50;;;;;;;15.01;59.05;100093.22;5002072;28;20049;-73
2022/08/17 01:02:59;;;;;;;9.23;6.78;;;;;;;14.80;59.81;100085.13;5018619;28;20535;-74
2022/08/17 01:05:28;;;;;;;9.30;7.75;;;;;;;14.79;59.96;100080.75;5001825;28;20168;-74
2022/08/17 01:07:54;;;;;;;;;;;;;;;14.85;60.33;100096.34;5018737;28;20064;-73
2022/08/17 01:10:26;;;;;;;11.20;10.00;;;;;;;14.78;59.88;100077.22;5035995;28;19939;-74
2022/08/17 01:12:53;;;;;;;14.77;11.13;;;;;;;14.84;60.29;100086.59;5034998;28;20053;-74
2022/08/17 01:15:18;;;;;;;29.00;13.55;;;;;;;14.84;60.34;100085.72;5035767;28;20052;-74
2022/08/17 01:17:45;;;;;;;18.70;16.73;;;;;;;14.84;60.88;100097.34;5001718;28;20045;-74
2022/08/17 01:20:11;;;;;;;23.20;20.83;;;;;;;14.75;61.04;100085.53;5035518;28;20034;-75
2022/08/17 01:22:37;;;;;;;26.17;20.23;;;;;;;14.81;60.78;100087.69;5034472;28;20053;-74
2022/08/17 01:25:06;;;;;;;24.27;19.85;;;;;;;14.80;61.14;100083.31;5035531;28;20136;-75
2022/08/17 01:27:34;;;;;;;29.15;20.17;;;;;;;14.76;61.09;100071.09;5034600;28;20072;-75
2022/08/17 01:30:06;;;;;;;28.60;19.53;;;;;;;14.79;61.36;100078.91;5017748;28;20047;-75
2022/08/17 01:32:32;;;;;;;22.35;17.40;;;;;;;14.77;61.48;100083.56;5034204;28;20045;-74
2022/08/17 01:34:59;;;;;;;24.95;18.88;;;;;;;14.82;61.50;100083.19;5035443;28;20095;-75
2022/08/17 01:37:33;;;;;;;23.65;19.02;;;;;;;14.82;61.74;100084.03;5034166;28;20042;-75
2022/08/17 01:40:05;;;;;;;22.92;18.42;;;;;;;14.87;61.24;100090.84;5034366;28;20084;-74
2022/08/17 01:42:46;;;;;;;20.70;16.52;;;;;;;14.75;61.29;100061.31;5001283;28;20060;-74
2022/08/17 01:45:21;;;;;;;17.42;12.82;;;;;;;14.78;61.65;100082.59;5017247;28;20041;-74
2022/08/17 01:47:48;;;;;;;18.60;13.45;;;;;;;14.80;61.73;100080.59;5017493;28;20076;-74
2022/08/17 01:50:21;;;;;;;24.77;12.13;;;;;;;14.74;61.74;100069.50;5033649;28;20049;-74
2022/08/17 01:52:50;;;;;;;13.52;9.43;;;;;;;14.77;61.96;100083.56;5033902;28;20045;-74
2022/08/17 01:55:20;;;;;;;17.05;10.00;;;;;;;14.73;62.11;100068.66;5034992;28;20037;-74
2022/08/17 01:57:46;;;;;;;20.23;10.35;;;;;;;14.69;62.13;100061.00;5034116;28;20037;-75
2022/08/17 02:00:12;;;;;;;15.82;9.25;;;;;;;14.74;62.34;100080.28;5000919;28;20459;-74
2022/08/17 02:02:39;;;;;;;18.17;8.45;;;;;;;14.71;62.46;100081.41;5017520;28;20092;-74
2022/08/17 02:05:07;;;;;;;17.73;8.27;;;;;;;14.75;62.39;100087.38;5017325;28;20091;-75
2022/08/17 02:07:35;;;;;;;21.38;7.85;;;;;;;14.77;62.45;100078.19;5034166;28;20049;-74
2022/08/17 02:10:04;;;;;;;21.67;7.23;;;;;;;14.73;62.78;100073.19;5033757;28;20049;-76
2022/08/17 02:12:30;;;;;;;12.68;7.50;;;;;;;14.73;62.75;100084.81;5034777;28;20778;-75
2022/08/17 02:14:56;;;;;;;9.48;6.00;;;;;;;14.72;63.02;100083.09;5033494;28;20075;-75
2022/08/17 02:17:22;;;;;;;15.35;5.55;;;;;;;14.75;62.74;100082.84;5034588;28;20048;-74
2022/08/17 02:19:48;;;;;;;8.85;5.03;;;;;;;14.72;62.80;100082.25;5000679;28;20413;-74
2022/08/17 02:22:14;;;;;;;10.35;4.80;;;;;;;14.69;62.82;100080.69;5034657;28;20049;-74
2022/08/17 02:24:40;;;;;;;9.13;5.00;;;;;;;14.79;62.93;100078.91;5016770;28;20048;-74
2022/08/17 02:27:06;;;;;;;8.55;4.50;;;;;;;14.79;62.65;100073.53;5033149;28;20076;-73
2022/08/17 02:29:32;;;;;;;8.15;4.35;;;;;;;14.86;62.40;100067.63;5034570;28;20072;-73
2022/08/17 02:31:59;;;;;;;12.50;4.63;;;;;;;14.99;62.32;100076.34;5016524;28;20084;-75
2022/08/17 02:34:25;;;;;;;11.93;4.47;;;;;;;14.98;62.39;100071.94;5032794;28;20034;-75
2022/08/17 02:36:52;;;;;;;15.07;5.50;;;;;;;15.09;62.54;100081.78;5000237;28;20195;-75
2022/08/17 02:39:18;;;;;;;13.70;4.60;;;;;;;15.17;61.98;100077.44;5033064;28;20053;-75
2022/08/17 02:41:44;;;;;;;14.50;5.07;;;;;;;15.17;62.46;100085.50;5000130;28;20052;-74
2022/08/17 02:44:10;;;;;;;14.38;4.07;;;;;;;15.26;62.20;100082.00;5034329;28;20524;-75
2022/08/17 02:46:37;;;;;;;17.20;4.50;;;;;;;15.31;61.99;100078.91;5040383;28;20061;-74
2022/08/17 02:49:04;;;;;;;16.50;4.60;;;;;;;15.41;61.65;100074.41;5036501;28;20123;-74
2022/08/17 02:51:30;;;;;;;8.88;3.75;;;;;;;15.48;61.58;100062.09;5032619;28;20126;-74
2022/08/17 02:53:56;;;;;;;10.45;4.70;;;;;;;15.60;60.87;100078.16;5032578;28;20056;-75
2022/08/17 02:56:22;;;;;;;13.63;4.82;;;;;;;15.65;61.15;100082.19;5020086;28;20048;-76
2022/08/17 02:58:48;;;;;;;16.45;4.55;;;;;;;15.70;60.65;100079.94;5031924;28;20052;-74
2022/08/17 03:01:14;;;;;;;12.40;4.82;;;;;;;15.78;60.40;100082.78;5032626;28;20416;-81
2022/08/17 03:03:40;;;;;;;14.77;5.03;;;;;;;15.96;60.55;100085.66;5015991;28;20053;-77
2022/08/17 03:06:07;;;;;;;12.18;4.63;;;;;;;16.07;60.29;100091.94;5033335;28;20485;-77
2022/08/17 03:08:34;;;;;;;11.15;4.88;;;;;;;16.05;59.93;100080.41;5032273;28;20080;-75
2022/08/17 03:11:00;;;;;;;13.00;4.88;;;;;;;16.20;59.96;100090.66;4999591;28;20063;-75
2022/08/17 03:13:26;;;;;;;14.32;4.93;;;;;;;16.36;59.39;100092.81;4999509;28;20045;-76
2022/08/17 03:15:52;;;;;;;15.88;4.95;;;;;;;16.43;59.19;100087.69;5016347;28;20091;-76
2022/08/17 03:18:19;;;;;;;17.42;4.90;;;;;;;16.57;58.15;100089.97;5032090;28;20048;-74
2022/08/17 03:20:46;;;;;;;20.67;5.93;;;;;;;16.76;58.05;100089.13;5032941;28;20489;-80
2022/08/17 03:23:11;;;;;;;17.70;5.53;;;;;;;16.84;57.88;100080.28;5032589;28;20065;-74
2022/08/17 03:25:41;;;;;;;9.00;5.13;;;;;;;17.01;57.59;100095.75;5033376;28;20523;-75
2022/08/17 03:28:09;;;;;;;12.15;4.75;;;;;;;17.06;57.05;100088.06;5033273;28;20631;-76
2022/08/17 03:30:35;;;;;;;20.33;5.35;;;;;;;17.17;56.97;100085.19;5033298;28;20049;-74
2022/08/17 03:33:04;;;;;;;18.08;5.13;;;;;;;17.36;56.55;100091.53;5015910;28;20064;-75
2022/08/17 03:35:32;;;;;;;22.45;5.60;;;;;;;17.46;56.24;100089.66;5001530;28;20044;-75
2022/08/17 03:37:59;;;;;;;16.17;5.35;;;;;;;17.62;55.65;100091.72;5032157;28;20579;-75
2022/08/17 03:40:25;;;;;;;18.65;5.80;;;;;;;17.78;55.02;100085.66;5012653;28;20049;-75
2022/08/17 03:42:53;;;;;;;12.73;5.28;;;;;;;17.74;54.69;100085.09;5051338;28;20052;-75
2022/08/17 03:56:41;;;;;;;16.27;4.75;;;;;;;17.71;54.97;100086.25;5051340;28;20139;-75
2022/08/17 03:56:45;;;;;;;19.73;5.82;;;;;;;18.09;54.06;100081.66;5033131;28;20052;-74
2022/08/17 03:59:15;;;;;;;15.40;5.40;;;;;;;18.15;53.93;100088.28;4999091;28;20187;-76
2022/08/17 04:01:47;;;;;;;21.00;6.22;;;;;;;18.37;53.48;100089.69;4998705;28;20065;-75
2022/08/17 04:04:13;;;;;;;18.83;5.35;;;;;;;18.41;52.97;100077.53;5032799;28;20515;-75
2022/08/17 04:06:40;;;;;;;14.48;5.07;;;;;;;18.59;52.63;100080.25;5032957;28;20045;-76
2022/08/17 04:09:08;;;;;;;22.45;5.03;;;;;;;18.73;52.10;100086.97;5029143;28;20562;-74
2022/08/17 04:11:35;;;;;;;24.52;5.07;;;;;;;18.79;52.08;100080.94;4996717;28;20037;-75
2022/08/17 04:14:02;;;;;;;16.10;5.22;;;;;;;18.95;51.56;100086.47;5013240;28;20128;-74
2022/08/17 04:16:28;;;;;;;7.68;4.38;;;;;;;19.06;51.30;100083.50;5013530;28;20076;-74
2022/08/17 04:18:54;;;;;;;7.10;4.85;;;;;;;18.99;50.85;100082.44;4997323;28;20054;-76
2022/08/17 04:21:22;;;;;;;19.58;5.45;;;;;;;19.23;51.07;100086.34;5029909;28;20049;-75
2022/08/17 04:23:48;;;;;;;17.27;5.70;;;;;;;19.46;50.03;100079.34;5030716;28;20111;-75
2022/08/17 04:26:15;;;;;;;17.35;5.60;;;;;;;19.61;49.71;100082.28;5032454;28;20103;-76
2022/08/17 04:28:42;;;;;;;22.02;5.25;;;;;;;19.62;49.51;100082.13;5032598;28;20098;-76
2022/08/17 04:31:10;;;;;;;19.23;5.68;;;;;;;19.67;49.45;100087.09;5015649;28;20042;-76
2022/08/17 04:33:36;;;;;;;17.52;5.05;;;;;;;19.79;49.65;100083.06;5018690;28;20041;-77
2022/08/17 04:36:04;;;;;;;14.43;4.85;;;;;;;19.83;49.33;100087.16;5035482;28;20038;-75
2022/08/17 04:38:34;;;;;;;20.80;4.43;;;;;;;19.81;49.59;100088.31;5035202;28;20056;-75
2022/08/17 04:43:47;;;;;;;24.48;4.88;;;;;;;20.07;48.05;100075.50;5018432;28;20045;-76
2022/08/17 04:46:17;;;;;;;17.40;5.13;;;;;;;20.34;47.81;100092.53;5018397;28;20136;-75
2022/08/17 04:48:49;;;;;;;13.95;4.70;;;;;;;20.43;46.98;100088.81;5018332;28;20072;-77
2022/08/17 04:51:19;;;;;;;11.25;4.65;;;;;;;20.52;47.21;100085.09;5034897;28;20081;-76
2022/08/17 04:53:47;;;;;;;33.40;7.03;;;;;;;20.61;46.66;100086.81;5035188;28;20064;-75
2022/08/17 04:56:14;;;;;;;16.80;5.43;;;;;;;20.60;46.53;100085.09;5002008;28;20048;-76
2022/08/17 04:58:46;;;;;;;16.55;5.25;;;;;;;20.72;46.77;100087.47;5018506;28;20050;-75
2022/08/17 05:01:13;;;;;;;29.30;6.70;;;;;;;20.86;45.86;100086.81;5035121;28;20064;-75
2022/08/17 05:03:40;;;;;;;22.63;6.93;;;;;;;20.78;46.16;100081.38;5034780;28;20045;-76
2022/08/17 05:06:06;;;;;;;27.92;6.38;;;;;;;20.98;45.84;100088.13;5034687;28;20038;-75
2022/08/17 05:08:33;;;;;;;21.90;5.50;;;;;;;21.10;45.43;100080.50;5034613;28;20124;-75
2022/08/17 05:10:59;;;;;;;19.15;5.13;;;;;;;21.34;44.95;100079.63;5035957;28;20033;-76
2022/08/17 05:13:28;;;;;;;24.05;5.18;;;;;;;21.06;44.65;100062.81;5035977;28;20095;-77
2022/08/17 05:15:57;;;;;;;32.22;5.05;;;;;;;21.21;44.53;100073.81;5018153;28;20440;-75
2022/08/17 05:18:23;;;;;;;27.67;4.72;;;;;;;21.32;44.04;100076.19;5018055;28;20048;-76
2022/08/17 05:20:49;;;;;;;20.05;4.07;;;;;;;21.38;43.98;100061.09;5034416;28;20136;-76
2022/08/17 05:23:18;;;;;;;17.73;4.35;;;;;;;21.35;44.02;100067.72;5018033;28;20164;-76
2022/08/17 05:25:47;;;;;;;21.98;4.47;;;;;;;21.50;44.08;100076.84;5017914;28;20131;-76
2022/08/17 05:28:15;;;;;;;15.15;4.78;;;;;;;21.65;43.48;100071.50;5001646;28;20048;-76
2022/08/17 05:30:42;;;;;;;30.55;4.70;;;;;;;21.64;42.75;100055.38;5017717;28;20041;-76
2022/08/17 05:33:18;;;;;;;21.58;3.72;;;;;;;21.81;42.09;100052.41;5035348;28;20049;-75
2022/08/17 05:35:46;;;;;;;17.50;3.80;;;;;;;21.90;41.86;100060.53;5034275;28;20038;-76
2022/08/17 05:38:13;;;;;;;10.82;3.33;;;;;;;21.83;42.04;100054.94;5035405;28;20382;-75
2022/08/17 05:40:40;;;;;;;21.35;3.70;;;;;;;22.16;41.66;100065.69;5017533;28;20045;-75
2022/08/17 05:43:17;;;;;;;18.27;3.55;;;;;;;22.30;41.36;100064.88;5017499;28;20045;-75
2022/08/17 05:45:51;;;;;;;12.73;3.50;;;;;;;22.55;41.19;100054.66;5017182;28;20049;-76
2022/08/17 05:48:18;;;;;;;13.40;3.05;;;;;;;22.74;40.34;100056.03;5034126;28;20045;-76
2022/08/17 05:51:09;;;;;;;12.43;3.50;;;;;;;22.90;39.77;100053.13;5017121;28;20046;-76
2022/08/17 05:53:43;;;;;;;16.60;3.67;;;;;;;22.97;39.57;100061.44;5033138;28;20419;-75
2022/08/17 05:56:13;;;;;;;17.63;3.92;;;;;;;23.04;39.89;100048.78;5017051;28;20404;-75
2022/08/17 05:59:20;;;;;;;23.25;3.78;;;;;;;23.12;39.77;100045.97;5017156;28;20095;-77
2022/08/17 06:02:09;;;;;;;17.83;3.63;;;;;;;23.32;39.77;100039.94;5032845;28;20057;-76
2022/08/17 06:04:38;;;;;;;18.75;3.30;;;;;;;23.43;38.96;100048.53;5034993;28;20059;-76
2022/08/17 06:07:24;;;;;;;;;;;;;;;23.59;38.58;100046.63;5033894;28;20041;-75
2022/08/17 06:10:24;;;;;;;12.88;3.22;;;;;;;23.72;38.43;100049.53;5017050;28;19943;-76
2022/08/17 06:13:07;;;;;;;16.65;3.47;;;;;;;23.85;37.71;100043.41;5016876;28;20103;-75
2022/08/17 06:16:00;;;;;;;13.82;2.97;;;;;;;24.12;36.95;100039.09;5000435;28;20047;-75
2022/08/17 06:18:34;;;;;;;14.18;2.90;;;;;;;24.05;35.05;100033.56;5033666;28;20496;-74
2022/08/17 06:21:04;;;;;;;10.38;2.50;;;;;;;23.91;35.00;100038.00;5017110;28;20518;-76
2022/08/17 06:23:38;;;;;;;11.88;2.50;;;;;;;24.11;35.36;100034.66;5033159;28;20059;-76
2022/08/17 06:26:26;;;;;;;6.78;2.70;;;;;;;24.34;35.59;100035.34;5033414;28;20045;-76
2022/08/17 06:28:54;;;;;;;;;;;;;;;24.45;34.60;100040.31;5034804;28;20562;-75
2022/08/17 06:31:33;;;;;;;9.48;2.75;;;;;;;24.35;34.63;100034.28;5034320;28;20014;-76
2022/08/17 06:34:02;;;;;;;15.90;2.80;;;;;;;24.59;34.75;100037.69;5033025;28;20043;-76
2022/08/17 06:36:47;;;;;;;11.43;2.65;;;;;;;24.70;33.59;100037.13;5032786;28;20060;-77
2022/08/17 06:39:13;;;;;;;11.38;2.60;;;;;;;24.88;32.74;100042.97;5032938;28;20055;-75
2022/08/17 06:41:42;;;;;;;11.75;2.65;;;;;;;24.91;32.29;100026.16;5032910;28;20049;-75
2022/08/17 06:44:29;;;;;;;12.48;2.65;;;;;;;25.03;31.92;100034.66;5016843;28;20076;-76
2022/08/17 06:47:12;;;;;;;8.70;2.30;;;;;;;25.11;31.66;100015.38;5032458;28;20053;-76
2022/08/17 06:49:46;;;;;;;12.70;3.10;;;;;;;25.26;31.17;100033.59;5016372;28;20065;-75
2022/08/17 06:52:23;;;;;;;10.07;2.42;;;;;;;25.17;32.00;100021.97;5016158;28;20390;-76
2022/08/17 06:55:02;;;;;;;14.43;2.47;;;;;;;25.35;31.93;100026.88;5033638;28;20128;-77
2022/08/17 06:57:34;;;;;;;20.73;2.88;;;;;;;25.50;31.35;100024.00;5016294;28;20049;-76
2022/08/17 07:00:07;;;;;;;9.55;2.28;;;;;;;25.64;31.38;100020.28;5032664;28;20037;-75
2022/08/17 07:02:36;;;;;;;11.13;2.67;;;;;;;25.92;30.58;100018.34;5032568;28;20483;-75
2022/08/17 07:05:03;;;;;;;;;;;;;;;26.04;31.02;100031.44;5016348;28;20046;-74
2022/08/17 07:10:16;;;;;;;8.00;2.53;;;;;;;26.28;30.57;100030.84;5032710;28;20235;-77
2022/08/17 07:12:44;;;;;;;8.65;2.50;;;;;;;26.34;30.12;100027.28;5033432;28;20037;-77
2022/08/17 07:15:29;;;;;;;13.40;2.13;;;;;;;26.22;29.83;100023.47;5015825;28;20515;-76
2022/08/17 07:17:58;;;;;;;29.38;2.80;;;;;;;26.22;30.39;100015.25;5016193;28;20578;-75
2022/08/17 07:20:24;;;;;;;7.43;2.20;;;;;;;26.30;29.07;100014.19;5032529;28;20052;-75
2022/08/17 07:23:18;;;;;;;9.40;2.42;;;;;;;26.09;29.21;100023.44;5032228;28;20045;-75
2022/08/17 07:25:44;;;;;;;3.65;1.98;;;;;;;26.15;29.63;100022.59;5031934;28;20038;-75
2022/08/17 07:28:11;;;;;;;20.17;2.40;;;;;;;25.96;29.31;100015.19;5032143;28;20048;-76
2022/08/17 07:30:39;;;;;;;6.53;2.08;;;;;;;26.11;29.25;100010.38;5032249;28;20037;-75
2022/08/17 07:33:12;;;;;;;10.05;2.47;;;;;;;26.09;28.59;100021.53;5031781;28;20049;-76
2022/08/17 07:35:40;;;;;;;6.05;2.00;;;;;;;26.17;28.95;100009.53;5031843;28;20049;-76
2022/08/17 07:38:22;;;;;;;8.23;2.10;;;;;;;26.33;29.02;100016.53;4998999;28;20045;-76
2022/08/17 07:40:56;;;;;;;5.63;1.73;;;;;;;26.59;28.48;100002.00;5033132;28;20103;-75
2022/08/17 07:43:36;;;;;;;7.00;1.70;;;;;;;27.13;28.64;100013.81;5015348;28;20527;-76
2022/08/17 07:49:02;;;;;;;7.18;1.90;;;;;;;27.60;27.43;99998.88;5032659;28;20041;-76
2022/08/17 07:51:37;;;;;;;11.75;1.88;;;;;;;27.84;27.55;99991.81;5032684;28;20049;-75
2022/08/17 07:54:21;;;;;;;20.40;2.72;;;;;;;27.58;27.58;100009.25;5031671;28;20073;-76
2022/08/17 07:56:47;;;;;;;11.73;2.20;;;;;;;27.48;28.20;100000.59;5014933;28;20088;-75
2022/08/17 07:59:22;;;;;;;14.30;2.30;;;;;;;27.50;27.75;99998.50;5031275;28;20118;-76
2022/08/17 08:01:57;;;;;;;7.05;2.25;;;;;;;27.39;27.54;99996.44;5031534;28;20048;-76
2022/08/17 08:04:43;;;;;;;12.18;2.45;;;;;;;27.31;27.23;100006.59;5031705;28;20045;-76
2022/08/17 08:07:24;;;;;;;5.30;2.00;;;;;;;27.00;28.11;100003.66;5030912;28;20095;-76
2022/08/17 08:10:31;;;;;;;16.42;2.50;;;;;;;27.26;28.60;99992.66;5031792;28;20063;-76
2022/08/17 08:13:14;;;;;;;12.60;2.10;;;;;;;27.49;27.77;99997.63;5032500;28;20053;-76
2022/08/17 08:15:47;;;;;;;17.38;2.05;;;;;;;27.79;27.45;99978.72;5014920;28;20046;-76
2022/08/17 08:18:31;;;;;;;9.20;2.15;;;;;;;27.92;26.45;99974.25;5033274;28;20041;-75
2022/08/17 08:21:09;;;;;;;9.00;1.90;;;;;;;27.76;26.75;99979.19;5015200;28;20045;-75
2022/08/17 08:23:35;;;;;;;8.02;1.90;;;;;;;27.98;27.17;99970.59;5015303;28;20107;-76
2022/08/17 08:26:13;;;;;;;12.15;2.28;;;;;;;28.42;26.90;99969.66;5031225;28;20053;-77
2022/08/17 08:28:48;;;;;;;3.92;2.08;;;;;;;28.78;25.86;99976.34;5031712;28;20416;-76
2022/08/17 08:31:33;;;;;;;8.40;2.38;;;;;;;28.88;25.24;99978.56;5031343;28;20083;-75
2022/08/17 08:34:22;;;;;;;5.22;2.00;;;;;;;28.77;25.45;99972.75;5031507;28;20052;-76
2022/08/17 08:37:03;;;;;;;10.27;2.10;;;;;;;28.91;25.29;99972.63;5014723;28;20053;-75
2022/08/17 08:40:01;;;;;;;6.22;2.63;;;;;;;29.11;25.21;99966.91;5031356;28;20069;-75
2022/08/17 08:42:47;;;;;;;6.85;1.73;;;;;;;29.67;24.53;99969.44;5030936;28;20041;-75
2022/08/17 08:45:42;;;;;;;7.45;2.47;;;;;;;29.75;23.89;99962.75;5030856;28;20382;-75
2022/08/17 08:48:27;;;;;;;11.13;2.20;;;;;;;29.55;24.50;99954.75;5031063;28;20053;-76
2022/08/17 08:51:18;;;;;;;10.10;2.40;;;;;;;29.12;23.79;99955.69;5032341;28;20070;-77
2022/08/17 08:54:00;;;;;;;8.60;2.50;;;;;;;28.98;24.36;99957.75;5014734;28;20077;-76
2022/08/17 08:56:48;;;;;;;10.07;2.00;;;;;;;28.90;24.19;99965.44;5014714;28;20080;-75
2022/08/17 08:59:31;;;;;;;9.15;2.45;;;;;;;29.35;24.27;99957.75;5014747;28;20088;-76
2022/08/17 09:02:32;;;;;;;10.38;2.20;;;;;;;29.39;22.63;99952.63;5032400;28;20052;-77
2022/08/17 09:05:16;;;;;;;9.38;2.08;;;;;;;29.56;22.97;99961.91;5022072;28;20104;-76
2022/08/17 09:07:51;;;;;;;14.52;2.45;;;;;;;29.85;23.10;99957.53;5015292;28;20045;-76
2022/08/17 09:10:26;;;;;;;6.63;2.53;;;;;;;30.21;22.80;99950.25;5032346;28;20099;-76
2022/08/17 09:13:11;;;;;;;7.03;1.83;;;;;;;30.50;22.63;99940.19;5032199;28;20056;-76
2022/08/17 09:16:08;;;;;;;6.38;2.08;;;;;;;30.39;22.85;99941.03;5031142;28;20041;-75
2022/08/17 09:18:40;;;;;;;6.53;2.13;;;;;;;30.37;23.40;99948.72;5033530;28;20052;-76
2022/08/17 09:21:17;;;;;;;9.02;2.60;;;;;;;30.19;23.56;99936.69;5018196;28;20137;-76
2022/08/17 09:24:01;;;;;;;5.85;2.30;;;;;;;30.04;23.61;99941.78;4986260;28;20136;-76
2022/08/17 09:26:57;;;;;;;8.82;2.55;;;;;;;30.44;24.03;99928.22;5018051;28;20065;-76
2022/08/17 09:29:27;;;;;;;9.45;2.58;;;;;;;31.02;23.80;99926.53;5018000;28;20056;-76
2022/08/17 09:31:57;;;;;;;5.80;2.47;;;;;;;31.39;23.11;99923.47;5034301;28;20038;-74
2022/08/17 09:34:30;;;;;;;8.88;2.40;;;;;;;31.06;23.33;99927.72;5034397;28;20080;-77
2022/08/17 09:37:02;;;;;;;7.47;2.33;;;;;;;30.56;24.46;99930.97;5017836;28;20084;-75
2022/08/17 09:39:33;;;;;;;12.45;3.28;;;;;;;30.90;24.27;99926.56;5033982;28;20048;-76
2022/08/17 09:42:29;;;;;;;4.40;2.20;;;;;;;31.40;23.73;99930.69;5017940;28;20060;-77
2022/08/17 09:45:18;;;;;;;8.85;2.25;;;;;;;31.73;23.59;99916.13;5033680;28;20053;-75
2022/08/17 09:48:01;;;;;;;9.75;2.40;;;;;;;31.72;23.71;99927.44;5033843;28;20100;-76
2022/08/17 09:50:35;;;;;;;5.65;2.80;;;;;;;31.71;24.21;99926.63;5017828;28;20041;-77
2022/08/17 09:53:01;;;;;;;10.13;3.42;;;;;;;31.37;24.74;99936.72;5034152;28;20096;-76
2022/08/17 09:55:54;;;;;;;10.38;2.75;;;;;;;31.02;24.43;99929.28;5017360;28;20083;-77
2022/08/17 09:58:39;;;;;;;3.80;2.15;;;;;;;31.32;24.62;99917.25;5017329;28;20045;-75
2022/08/17 10:01:30;;;;;;;10.40;2.25;;;;;;;31.87;24.25;99913.94;5017414;28;20060;-77
2022/08/17 10:04:24;;;;;;;10.30;2.50;;;;;;;31.42;24.98;99914.72;5017107;28;20053;-75
2022/08/17 10:07:16;;;;;;;9.82;2.70;;;;;;;31.33;25.50;99914.25;5033735;28;20061;-75
2022/08/17 10:09:54;;;;;;;13.70;2.85;;;;;;;31.52;24.70;99901.09;5030885;28;20076;-76
2022/08/17 10:12:30;;;;;;;13.35;3.42;;;;;;;31.13;25.09;99911.88;5016977;28;20067;-76
2022/08/17 10:15:04;;;;;;;12.70;3.10;;;;;;;31.32;25.31;99897.91;5016435;28;20049;-76
2022/08/17 10:17:52;;;;;;;15.27;3.03;;;;;;;31.21;25.55;99903.19;5016701;28;20047;-75
2022/08/17 10:20:30;;;;;;;7.53;2.83;;;;;;;31.13;25.39;99909.09;5016948;28;20076;-76
2022/08/17 10:26:26;;;;;;;7.82;2.63;;;;;;;31.23;25.58;99896.59;5033186;28;20076;-76
2022/08/17 10:28:57;;;;;;;10.18;3.00;;;;;;;31.84;25.04;99892.28;5047639;28;20086;-77
2022/08/17 10:31:30;;;;;;;4.03;2.80;;;;;;;31.57;25.75;99903.97;5016901;28;20041;-76
2022/08/17 10:34:18;;;;;;;5.45;2.60;;;;;;;31.99;24.75;99900.88;5016654;28;20554;-76
2022/08/17 10:36:59;;;;;;;11.07;2.58;;;;;;;31.88;25.22;99885.19;5016772;28;20136;-76
2022/08/17 10:39:43;;;;;;;12.35;2.47;;;;;;;32.17;24.83;99892.34;5033980;28;20077;-76
2022/08/17 10:42:33;;;;;;;6.78;2.60;;;;;;;32.80;24.53;99895.00;5017234;28;20107;-76
2022/08/17 10:45:18;;;;;;;5.57;2.50;;;;;;;32.69;24.07;99890.41;5000077;28;20045;-77
2022/08/17 10:48:02;;;;;;;8.30;2.78;;;;;;;32.31;24.42;99886.47;5016499;28;20041;-76
2022/08/17 10:50:58;;;;;;;7.32;2.75;;;;;;;32.62;24.27;99883.13;5016462;28;20072;-75
2022/08/17 10:53:33;;;;;;;12.02;3.00;;;;;;;33.23;23.36;99894.19;5017331;28;20048;-76
2022/08/17 10:56:12;;;;;;;5.60;2.53;;;;;;;33.64;22.77;99880.84;5016406;28;20046;-75
2022/08/17 10:58:48;;;;;;;10.15;2.53;;;;;;;34.02;22.50;99896.47;5016245;28;20042;-75
2022/08/17 11:01:16;;;;;;;5.35;2.42;;;;;;;34.26;22.04;99890.56;5016820;28;20049;-75
2022/08/17 11:03:56;;;;;;;8.45;2.47;;;;;;;34.58;21.67;99876.69;5032848;28;20131;-76
2022/08/17 11:06:34;;;;;;;5.03;2.85;;;;;;;34.61;21.91;99880.88;4999843;28;20064;-75
2022/08/17 11:09:19;;;;;;;5.63;2.60;;;;;;;34.40;21.57;99886.25;5016620;28;20111;-75
2022/08/17 11:12:12;;;;;;;9.80;2.58;;;;;;;34.26;21.42;99896.13;5016414;28;20386;-75
2022/08/17 11:14:56;;;;;;;5.93;2.22;;;;;;;34.36;20.89;99879.56;4999960;28;20060;-76
2022/08/17 11:17:40;;;;;;;6.82;2.40;;;;;;;34.19;20.60;99885.28;5032624;28;20045;-75
2022/08/17 11:20:19;;;;;;;8.75;2.70;;;;;;;34.18;20.74;99877.19;5016373;28;20069;-75
2022/08/17 11:23:09;;;;;;;3.35;2.15;;;;;;;34.63;20.41;99879.50;5016510;28;20570;-75
2022/08/17 11:25:43;;;;;;;6.03;2.90;;;;;;;35.12;19.81;99886.72;5031959;28;20037;-75
2022/08/17 11:28:14;;;;;;;11.57;2.80;;;;;;;35.22;19.64;99881.22;5031992;28;20129;-75
2022/08/17 11:30:53;;;;;;;5.10;2.28;;;;;;;35.25;19.97;99881.50;5015859;28;20056;-76
2022/08/17 11:33:33;;;;;;;4.90;2.40;;;;;;;35.63;19.29;99875.81;5033358;28;20044;-76
2022/08/17 11:36:29;;;;;;;4.65;2.33;;;;;;;35.77;19.26;99865.81;5032187;28;20044;-75
2022/08/17 11:39:17;;;;;;;2.08;1.90;;;;;;;36.26;19.12;99858.88;5016129;28;20087;-76
2022/08/17 11:41:59;;;;;;;6.25;2.22;;;;;;;36.35;19.24;99854.41;5032123;28;20045;-76
2022/08/17 11:44:41;;;;;;;10.88;2.40;;;;;;;36.80;18.82;99855.47;5015949;28;20591;-75
2022/08/17 11:53:44;;;;;;;7.28;2.80;;;;;;;35.62;20.17;99843.50;5033173;28;20049;-75
2022/08/17 11:56:30;;;;;;;7.78;2.55;;;;;;;36.55;19.34;99853.56;5034654;28;20120;-76
2022/08/17 11:58:57;;;;;;;7.28;2.38;;;;;;;35.68;20.12;99851.59;5031474;28;20041;-75
2022/08/17 12:01:44;;;;;;;8.82;2.63;;;;;;;36.17;19.87;99839.94;5015011;28;20037;-75
2022/08/17 12:04:26;;;;;;;10.48;2.60;;;;;;;37.08;19.10;99832.50;5031483;28;20079;-75
2022/08/17 12:07:19;;;;;;;5.85;2.65;;;;;;;37.34;18.70;99854.69;5015018;28;20052;-75
2022/08/17 12:09:49;;;;;;;9.85;2.75;;;;;;;36.66;19.40;99846.84;5031546;28;20045;-75
2022/08/17 12:12:20;;;;;;;7.13;2.60;;;;;;;36.92;19.29;99851.22;5031660;28;20528;-76
2022/08/17 12:14:53;;;;;;;6.70;2.50;;;;;;;37.30;18.91;99848.84;5031450;28;20041;-76
2022/08/17 12:17:22;;;;;;;8.10;2.28;;;;;;;37.42;18.67;99845.72;5031703;28;20064;-76
2022/08/17 12:19:48;;;;;;;8.65;2.85;;;;;;;37.63;18.85;99838.91;5031223;28;20160;-76
2022/08/17 12:22:25;;;;;;;5.63;2.42;;;;;;;38.59;17.97;99836.44;5031234;28;20049;-75